Time;durP1;ratioP1;P1;durP2;ratioP2;P2;SDS_P1;SDS_P2;PMS_P1;PMS_P2;Temp;Humidity;BMP_temperature;BMP_pressure;BME280_temperature;BME280_humidity;BME280_pressure;Samples;Min_cycle;Max_cycle;Signal;HPM_P1;HPM_P2
2023/10/05 00:04:28;;;;;;;5.00;0.80;;;13.80;99.90;;;;;;5027908;28;20045;-73
2023/10/05 00:06:54;;;;;;;4.18;0.60;;;13.80;99.90;;;;;;5027049;28;20069;-73
2023/10/05 00:09:21;;;;;;;2.20;0.73;;;13.80;99.90;;;;;;5025943;28;20533;-73
2023/10/05 00:11:47;;;;;;;6.28;0.90;;;13.80;99.90;;;;;;5022398;28;20077;-73
2023/10/05 00:14:12;;;;;;;2.97;0.68;;;13.80;99.90;;;;;;5046294;28;20507;-73
2023/10/05 00:16:39;;;;;;;2.00;0.80;;;13.80;99.90;;;;;;5010513;28;20041;-73
2023/10/05 00:19:10;;;;;;;2.97;0.50;;;13.80;99.90;;;;;;5028360;28;20033;-73
2023/10/05 00:21:48;;;;;;;3.38;0.68;;;13.80;99.90;;;;;;5010227;28;20088;-73
2023/10/05 00:24:15;;;;;;;1.33;0.60;;;13.80;99.90;;;;;;5026725;28;20095;-73
2023/10/05 00:26:43;;;;;;;3.72;0.70;;;13.80;99.90;;;;;;5024911;28;20037;-73
2023/10/05 00:31:44;;;;;;;4.95;1.17;;;13.80;99.90;;;;;;5028158;28;20064;-73
2023/10/05 00:34:24;;;;;;;1.67;0.60;;;13.80;99.90;;;;;;5010127;28;20044;-73
2023/10/05 00:36:51;;;;;;;2.53;0.77;;;13.80;99.90;;;;;;5040018;28;20076;-73
2023/10/05 00:39:21;;;;;;;2.80;0.68;;;13.80;99.90;;;;;;5026486;28;20080;-73
2023/10/05 00:44:30;;;;;;;3.80;0.82;;;13.80;99.90;;;;;;5019589;28;20095;-73
2023/10/05 00:47:00;;;;;;;3.80;0.60;;;13.80;99.90;;;;;;5007233;28;20041;-73
2023/10/05 00:49:29;;;;;;;3.75;0.88;;;13.80;99.90;;;;;;5026171;28;20037;-73
2023/10/05 00:52:14;;;;;;;4.57;0.80;;;13.80;99.90;;;;;;5010902;28;20135;-73
2023/10/05 00:54:51;;;;;;;2.22;0.75;;;13.80;99.90;;;;;;5010711;28;20036;-73
2023/10/05 00:57:23;;;;;;;6.05;0.93;;;13.80;99.90;;;;;;5025232;28;20083;-73
2023/10/05 01:02:31;;;;;;;2.08;0.73;;;13.80;99.90;;;;;;5023921;28;20064;-73
2023/10/05 01:05:08;;;;;;;5.00;0.80;;;13.80;99.90;;;;;;5026582;28;20049;-73
2023/10/05 01:07:43;;;;;;;3.50;0.93;;;13.90;99.90;;;;;;5008237;28;20487;-73
2023/10/05 01:12:41;;;;;;;1.92;0.68;;;13.80;99.90;;;;;;5025545;28;20107;-73
2023/10/05 01:15:09;;;;;;;3.53;0.65;;;13.90;99.90;;;;;;5010115;28;20069;-73
2023/10/05 01:17:35;;;;;;;5.90;0.90;;;13.80;99.90;;;;;;5010631;28;20098;-73
2023/10/05 01:20:16;;;;;;;3.15;0.75;;;13.90;99.90;;;;;;5024029;28;20048;-73
2023/10/05 01:22:44;;;;;;;1.88;0.60;;;13.80;99.90;;;;;;5032976;28;20042;-73
2023/10/05 01:25:13;;;;;;;9.65;0.90;;;13.90;99.90;;;;;;5023994;28;20119;-73
2023/10/05 01:27:41;;;;;;;3.42;0.70;;;13.80;99.90;;;;;;5025714;28;20041;-73
2023/10/05 01:30:09;;;;;;;3.22;0.73;;;13.80;99.90;;;;;;5024827;28;20848;-73
2023/10/05 01:32:35;;;;;;;2.67;0.63;;;13.80;99.90;;;;;;5022129;28;20120;-73
2023/10/05 01:35:06;;;;;;;4.03;1.08;;;13.80;99.90;;;;;;5056042;28;20103;-73
2023/10/05 01:37:33;;;;;;;4.57;0.80;;;13.80;99.90;;;;;;5024912;28;20107;-73
2023/10/05 01:39:59;;;;;;;2.95;0.63;;;13.80;99.90;;;;;;5023268;28;20037;-73
2023/10/05 01:42:25;;;;;;;9.93;1.05;;;13.80;99.90;;;;;;5024897;28;21049;-73
2023/10/05 01:44:51;;;;;;;2.40;0.70;;;13.80;99.90;;;;;;5024685;28;20041;-73
2023/10/05 01:47:17;;;;;;;3.72;0.90;;;13.80;99.90;;;;;;5025850;28;20650;-73
2023/10/05 01:49:44;;;;;;;8.00;1.00;;;13.80;99.90;;;;;;5010033;28;20061;-73
2023/10/05 01:52:10;;;;;;;2.22;0.70;;;13.80;99.90;;;;;;5010902;28;20120;-73
2023/10/05 01:54:36;;;;;;;2.40;0.50;;;13.80;99.90;;;;;;5026665;28;20184;-73
2023/10/05 01:57:04;;;;;;;2.83;0.88;;;13.90;99.90;;;;;;5006083;28;20498;-73
2023/10/05 01:59:33;;;;;;;2.30;0.85;;;13.80;99.90;;;;;;5026366;28;20034;-73
2023/10/05 02:02:00;;;;;;;2.70;0.80;;;13.90;99.90;;;;;;5007489;28;20057;-73
2023/10/05 02:04:26;;;;;;;5.10;0.88;;;13.80;99.90;;;;;;5023360;28;20056;-73
2023/10/05 02:06:53;;;;;;;4.72;1.23;;;13.80;99.90;;;;;;5051399;28;20041;-73
2023/10/05 02:09:21;;;;;;;6.72;1.00;;;13.90;99.90;;;;;;5025258;28;20100;-73
2023/10/05 02:11:48;;;;;;;1.90;0.60;;;13.90;99.90;;;;;;5024098;28;20041;-73
2023/10/05 02:14:17;;;;;;;5.43;1.50;;;13.90;99.90;;;;;;5029399;28;20069;-73
2023/10/05 02:16:49;;;;;;;2.22;0.80;;;13.80;99.90;;;;;;5029618;28;20031;-73
2023/10/05 02:19:16;;;;;;;4.03;0.80;;;13.80;99.90;;;;;;5027065;28;20045;-73
2023/10/05 02:21:43;;;;;;;5.43;0.77;;;13.80;99.90;;;;;;5009058;28;20033;-73
2023/10/05 02:24:22;;;;;;;1.85;0.77;;;13.80;99.90;;;;;;5014025;28;20049;-73
2023/10/05 02:29:31;;;;;;;2.05;0.52;;;13.80;99.90;;;;;;5029518;28;20045;-73
2023/10/05 02:34:33;;;;;;;5.78;0.80;;;13.90;99.90;;;;;;5029014;28;20048;-73
2023/10/05 02:37:00;;;;;;;2.58;1.00;;;13.90;99.90;;;;;;5028870;28;20037;-73
2023/10/05 02:39:26;;;;;;;3.30;0.80;;;13.90;99.90;;;;;;5010539;28;20029;-73
2023/10/05 02:41:54;;;;;;;3.30;1.20;;;13.90;99.90;;;;;;5012070;28;20053;-73
2023/10/05 02:44:29;;;;;;;3.35;0.70;;;13.90;99.90;;;;;;5027722;28;20054;-73
2023/10/05 02:46:55;;;;;;;2.35;0.63;;;13.90;99.90;;;;;;5023736;28;20049;-73
2023/10/05 02:49:24;;;;;;;3.83;1.00;;;13.90;99.90;;;;;;5028462;28;20427;-73
2023/10/05 02:51:52;;;;;;;2.72;0.65;;;13.90;99.90;;;;;;5027845;28;20045;-73
2023/10/05 02:54:24;;;;;;;3.55;0.77;;;13.90;99.90;;;;;;5013283;28;20037;-73
2023/10/05 02:56:53;;;;;;;4.13;0.65;;;13.90;99.90;;;;;;5026600;28;20414;-73
2023/10/05 02:59:20;;;;;;;9.55;1.40;;;13.90;99.90;;;;;;5028696;28;20614;-73
2023/10/05 03:01:47;;;;;;;2.55;0.80;;;14.00;99.90;;;;;;5009789;28;20456;-73
2023/10/05 03:06:39;;;;;;;4.03;0.77;;;14.00;99.90;;;;;;5027635;28;20045;-73
2023/10/05 03:09:08;;;;;;;3.17;0.90;;;14.00;99.90;;;;;;5027010;28;20049;-73
2023/10/05 03:11:42;;;;;;;3.72;0.80;;;14.00;99.90;;;;;;5011573;28;20644;-73
2023/10/05 03:14:12;;;;;;;5.35;0.60;;;14.00;99.90;;;;;;5011330;28;20077;-73
2023/10/05 03:16:47;;;;;;;3.60;1.10;;;14.00;99.90;;;;;;5042056;28;20050;-73
2023/10/05 03:19:21;;;;;;;2.95;0.70;;;14.00;99.90;;;;;;5022046;28;20037;-73
2023/10/05 03:21:52;;;;;;;4.70;1.00;;;14.00;99.90;;;;;;5025661;28;20037;-73
2023/10/05 03:24:19;;;;;;;4.45;0.80;;;13.90;99.90;;;;;;5027527;28;20052;-73
2023/10/05 03:26:46;;;;;;;3.42;1.17;;;13.90;99.90;;;;;;5011416;28;20112;-72
2023/10/05 03:29:12;;;;;;;2.38;0.77;;;13.90;99.90;;;;;;5042883;28;20037;-73
2023/10/05 03:31:55;;;;;;;2.55;0.68;;;13.90;99.90;;;;;;5028190;28;20449;-73
2023/10/05 03:34:25;;;;;;;3.20;0.65;;;13.90;99.90;;;;;;5027999;28;20033;-73
2023/10/05 03:36:52;;;;;;;2.22;0.90;;;13.90;99.90;;;;;;5027506;28;20103;-73
2023/10/05 03:39:17;;;;;;;4.30;0.85;;;13.90;99.90;;;;;;5027629;28;20049;-73
2023/10/05 03:41:44;;;;;;;6.07;0.93;;;13.80;99.90;;;;;;5027020;28;20559;-73
2023/10/05 03:44:15;;;;;;;5.90;0.98;;;13.80;99.90;;;;;;5026170;28;20120;-73
2023/10/05 03:46:49;;;;;;;4.05;0.88;;;13.80;99.90;;;;;;5026126;28;20045;-73
2023/10/05 03:49:17;;;;;;;3.38;0.80;;;13.80;99.90;;;;;;5027657;28;20048;-73
2023/10/05 03:51:45;;;;;;;2.53;0.73;;;13.80;99.90;;;;;;5028593;28;20045;-73
2023/10/05 03:54:10;;;;;;;2.92;0.75;;;13.80;99.90;;;;;;5011080;28;20033;-73
2023/10/05 03:56:36;;;;;;;2.47;0.70;;;13.80;99.90;;;;;;5026362;28;20048;-73
2023/10/05 03:59:02;;;;;;;3.45;0.88;;;13.80;99.90;;;;;;5027063;28;20041;-73
2023/10/05 04:01:28;;;;;;;1.60;0.63;;;13.80;99.90;;;;;;5010936;28;20033;-73
2023/10/05 04:03:54;;;;;;;2.10;0.60;;;13.90;99.90;;;;;;5008016;28;20128;-73
2023/10/05 04:06:20;;;;;;;4.82;0.75;;;13.80;99.90;;;;;;5030273;28;20128;-73
2023/10/05 04:08:54;;;;;;;6.32;0.93;;;13.80;99.90;;;;;;5011695;28;20033;-73
2023/10/05 04:11:21;;;;;;;2.35;0.70;;;13.80;99.90;;;;;;5025952;28;20430;-73
2023/10/05 04:13:49;;;;;;;3.75;0.63;;;13.80;99.90;;;;;;5005769;28;20049;-73
2023/10/05 04:16:22;;;;;;;4.20;0.68;;;13.80;99.90;;;;;;5023922;28;20124;-73
2023/10/05 04:18:50;;;;;;;5.22;0.65;;;13.80;99.90;;;;;;5045200;28;20041;-73
2023/10/05 04:21:16;;;;;;;4.85;0.57;;;13.80;99.90;;;;;;5026775;28;20530;-73
2023/10/05 04:23:49;;;;;;;3.58;0.88;;;13.80;99.90;;;;;;5025242;28;20038;-73
2023/10/05 04:26:17;;;;;;;3.10;0.63;;;13.80;99.90;;;;;;5025805;28;20130;-73
2023/10/05 04:28:52;;;;;;;3.05;0.50;;;13.90;99.90;;;;;;5027029;28;20049;-73
2023/10/05 04:31:22;;;;;;;5.25;1.10;;;13.80;99.90;;;;;;5027340;28;20033;-73
2023/10/05 04:33:52;;;;;;;6.47;1.40;;;13.90;99.90;;;;;;5006692;28;20043;-73
2023/10/05 04:36:30;;;;;;;4.13;0.77;;;13.80;99.90;;;;;;5029707;28;20120;-73
2023/10/05 04:38:55;;;;;;;5.63;1.23;;;13.90;99.90;;;;;;5031604;28;20060;-73
2023/10/05 04:41:28;;;;;;;3.50;0.88;;;13.90;99.90;;;;;;5025253;28;20073;-73
2023/10/05 04:43:55;;;;;;;2.67;0.70;;;13.90;99.90;;;;;;5021610;28;20037;-73
2023/10/05 04:46:20;;;;;;;5.22;1.02;;;13.90;99.90;;;;;;5021823;28;20040;-73
2023/10/05 04:48:56;;;;;;;3.00;0.77;;;13.90;99.90;;;;;;5011450;28;20120;-73
2023/10/05 04:51:30;;;;;;;3.67;1.15;;;13.90;99.90;;;;;;5009819;28;20124;-73
2023/10/05 04:53:59;;;;;;;6.30;1.00;;;13.90;99.90;;;;;;5029077;28;20140;-73
2023/10/05 04:56:36;;;;;;;6.15;0.93;;;13.90;99.90;;;;;;5024364;28;20454;-73
2023/10/05 05:07:09;;;;;;;2.25;1.00;;;13.90;99.90;;;;;;5018256;28;20065;-73
2023/10/05 05:09:39;;;;;;;6.55;0.85;;;13.90;99.90;;;;;;5010453;28;20029;-73
2023/10/05 05:12:16;;;;;;;2.08;0.88;;;13.90;99.90;;;;;;5024098;28;20037;-73
2023/10/05 05:14:44;;;;;;;2.83;0.70;;;13.90;99.90;;;;;;5008152;28;20052;-73
2023/10/05 05:17:14;;;;;;;11.32;0.90;;;13.90;99.90;;;;;;5026192;28;20068;-73
2023/10/05 05:19:40;;;;;;;4.50;0.60;;;13.90;99.90;;;;;;5026232;28;20399;-73
2023/10/05 05:22:06;;;;;;;1.88;0.63;;;13.90;99.90;;;;;;5023907;28;20488;-73
2023/10/05 05:24:36;;;;;;;5.45;0.93;;;13.90;99.90;;;;;;5026569;28;20053;-73
2023/10/05 05:27:04;;;;;;;3.97;0.98;;;13.90;99.90;;;;;;5024362;28;20080;-73
2023/10/05 05:29:32;;;;;;;2.47;0.65;;;14.00;99.90;;;;;;5010305;28;20049;-73
2023/10/05 05:32:02;;;;;;;2.72;0.90;;;13.90;99.90;;;;;;5007880;28;20057;-73
2023/10/05 05:34:31;;;;;;;5.03;0.68;;;13.90;99.90;;;;;;5009465;28;20061;-73
2023/10/05 05:36:58;;;;;;;1.92;0.70;;;13.90;99.90;;;;;;5025214;28;20521;-73
2023/10/05 05:39:25;;;;;;;6.10;0.80;;;13.90;99.90;;;;;;5042891;28;20044;-73
2023/10/05 05:41:59;;;;;;;6.93;1.00;;;13.90;99.90;;;;;;5008526;28;20073;-73
2023/10/05 05:44:26;;;;;;;2.22;0.95;;;13.90;99.90;;;;;;5025242;28;20914;-73
2023/10/05 05:46:55;;;;;;;3.42;0.93;;;13.90;99.90;;;;;;5041759;28;20065;-73
2023/10/05 05:49:21;;;;;;;3.53;1.00;;;13.90;99.90;;;;;;5030673;28;20046;-73
2023/10/05 05:51:47;;;;;;;2.45;0.93;;;13.90;99.90;;;;;;5026270;28;20067;-73
2023/10/05 05:54:13;;;;;;;5.10;0.82;;;13.90;99.90;;;;;;5013029;28;20034;-73
2023/10/05 05:56:42;;;;;;;4.45;0.98;;;13.90;99.90;;;;;;5029096;28;20423;-73
2023/10/05 05:59:08;;;;;;;2.40;0.70;;;13.90;99.90;;;;;;5029110;28;20044;-73
2023/10/05 06:01:35;;;;;;;2.83;0.77;;;13.90;99.90;;;;;;5028609;28;20086;-73
2023/10/05 06:04:01;;;;;;;6.68;1.02;;;13.90;99.90;;;;;;5029550;28;20046;-73
2023/10/05 06:06:27;;;;;;;4.57;0.70;;;13.90;99.90;;;;;;5029728;28;20053;-73
2023/10/05 06:08:52;;;;;;;4.47;0.95;;;13.90;99.90;;;;;;5026835;28;20674;-73
2023/10/05 06:11:19;;;;;;;5.30;1.13;;;13.90;99.90;;;;;;5013555;28;20103;-73
2023/10/05 06:13:47;;;;;;;2.95;0.80;;;14.00;99.90;;;;;;5046308;28;20045;-73
2023/10/05 06:16:14;;;;;;;3.25;0.90;;;14.00;99.90;;;;;;5025994;28;20037;-73
2023/10/05 06:18:39;;;;;;;4.93;1.23;;;14.00;99.90;;;;;;5045098;28;20037;-73
2023/10/05 06:21:05;;;;;;;3.33;0.77;;;14.00;99.90;;;;;;5009478;28;20040;-73
2023/10/05 06:23:34;;;;;;;8.82;1.25;;;14.00;99.90;;;;;;5028367;28;20064;-73
2023/10/05 06:26:00;;;;;;;4.20;0.88;;;14.00;99.90;;;;;;5027941;28;20051;-73
2023/10/05 06:28:27;;;;;;;6.75;0.95;;;14.00;99.90;;;;;;5028473;28;20037;-73
2023/10/05 06:30:53;;;;;;;3.47;1.00;;;14.10;99.90;;;;;;5011479;28;20151;-73
2023/10/05 06:33:19;;;;;;;4.93;1.17;;;14.10;99.90;;;;;;5024476;28;20037;-73
2023/10/05 06:35:46;;;;;;;4.13;1.13;;;14.10;99.90;;;;;;5023732;28;20029;-73
2023/10/05 06:38:12;;;;;;;5.22;1.08;;;14.10;99.90;;;;;;5003418;28;20029;-73
2023/10/05 06:40:37;;;;;;;4.13;0.95;;;14.10;99.90;;;;;;5018973;28;20041;-73
2023/10/05 06:43:05;;;;;;;4.85;0.93;;;14.10;99.90;;;;;;5020224;28;20487;-73
2023/10/05 06:45:31;;;;;;;3.33;1.23;;;14.10;99.90;;;;;;4992764;28;20128;-73
2023/10/05 06:47:57;;;;;;;14.48;1.40;;;14.20;99.90;;;;;;5025124;28;20124;-73
2023/10/05 06:50:23;;;;;;;3.67;0.73;;;14.20;99.90;;;;;;5024021;28;20029;-73
2023/10/05 06:52:49;;;;;;;4.03;0.98;;;14.20;99.90;;;;;;5007545;28;20049;-72
2023/10/05 06:55:21;;;;;;;5.10;1.30;;;14.20;99.90;;;;;;5006888;28;20079;-73
2023/10/05 06:57:50;;;;;;;3.33;0.90;;;14.20;99.90;;;;;;5005677;28;20038;-73
2023/10/05 07:00:20;;;;;;;4.07;1.10;;;14.20;99.90;;;;;;5023930;28;20041;-72
2023/10/05 07:02:50;;;;;;;4.35;0.80;;;14.20;99.90;;;;;;5024135;28;20490;-73
2023/10/05 07:05:16;;;;;;;6.15;1.05;;;14.20;99.90;;;;;;5009989;28;21319;-73
2023/10/05 07:07:42;;;;;;;7.47;1.00;;;14.30;99.90;;;;;;5020916;28;20045;-73
2023/10/05 07:10:14;;;;;;;3.80;1.20;;;14.30;99.90;;;;;;5024052;28;20037;-73
2023/10/05 07:12:46;;;;;;;3.65;0.80;;;14.30;99.90;;;;;;5025001;28;20471;-72
2023/10/05 07:15:12;;;;;;;6.38;1.00;;;14.30;99.90;;;;;;5023594;28;20121;-72
2023/10/05 07:17:37;;;;;;;5.05;0.93;;;14.30;99.90;;;;;;5002202;28;20072;-74
2023/10/05 07:20:04;;;;;;;6.38;1.33;;;14.30;99.90;;;;;;5020838;28;20120;-78
2023/10/05 07:22:30;;;;;;;3.55;1.00;;;14.40;99.90;;;;;;5024455;28;20061;-77
2023/10/05 07:24:56;;;;;;;3.80;1.48;;;14.30;99.90;;;;;;5024261;28;20774;-72
2023/10/05 07:27:21;;;;;;;2.85;0.90;;;14.40;99.90;;;;;;5021162;28;20055;-72
2023/10/05 07:29:47;;;;;;;3.53;0.80;;;14.50;99.90;;;;;;5025519;28;20033;-72
2023/10/05 07:32:13;;;;;;;5.03;1.15;;;14.50;99.90;;;;;;5024538;28;20180;-72
2023/10/05 07:34:40;;;;;;;3.95;0.90;;;14.50;99.90;;;;;;5028601;28;20400;-72
2023/10/05 07:37:10;;;;;;;4.60;0.90;;;14.50;99.90;;;;;;5029003;28;20029;-72
2023/10/05 07:39:40;;;;;;;4.20;1.35;;;14.50;99.90;;;;;;5028026;28;20458;-72
2023/10/05 07:42:09;;;;;;;8.90;1.20;;;14.60;99.90;;;;;;5025654;28;20056;-72
2023/10/05 07:44:37;;;;;;;7.07;1.40;;;14.60;99.90;;;;;;5028835;28;20076;-72
2023/10/05 07:47:06;;;;;;;3.88;1.00;;;14.60;99.90;;;;;;5028719;28;20045;-72
2023/10/05 07:49:35;;;;;;;2.78;0.85;;;14.60;99.90;;;;;;5028959;28;20041;-72
2023/10/05 07:52:10;;;;;;;2.47;1.00;;;14.70;99.90;;;;;;5009217;28;20520;-72
2023/10/05 07:54:38;;;;;;;8.57;1.52;;;14.70;99.90;;;;;;5029465;28;20441;-72
2023/10/05 07:57:07;;;;;;;4.65;1.30;;;14.70;99.90;;;;;;5028998;28;20041;-72
2023/10/05 07:59:32;;;;;;;6.93;1.70;;;14.70;99.90;;;;;;5011856;28;20493;-72
2023/10/05 08:01:58;;;;;;;5.57;1.30;;;14.70;99.90;;;;;;5026950;28;20045;-71
2023/10/05 08:04:24;;;;;;;3.63;1.25;;;14.70;99.90;;;;;;5026985;28;20042;-72
2023/10/05 08:06:50;;;;;;;8.57;1.08;;;14.70;99.90;;;;;;5027691;28;20438;-72
2023/10/05 08:09:20;;;;;;;4.20;1.17;;;14.80;99.90;;;;;;5012226;28;20081;-72
2023/10/05 08:11:47;;;;;;;6.15;1.50;;;14.80;99.90;;;;;;5028338;28;20426;-72
2023/10/05 08:14:13;;;;;;;3.75;0.95;;;14.80;99.90;;;;;;5044798;28;20044;-72
2023/10/05 08:16:38;;;;;;;5.72;1.30;;;14.80;99.90;;;;;;5027062;28;20125;-72
2023/10/05 08:19:05;;;;;;;4.78;0.93;;;14.80;99.90;;;;;;5029437;28;20095;-72
2023/10/05 08:21:31;;;;;;;3.78;0.90;;;14.90;99.90;;;;;;5028277;28;20042;-72
2023/10/05 08:23:57;;;;;;;4.55;1.20;;;14.90;99.90;;;;;;5027840;28;20052;-72
2023/10/05 08:26:24;;;;;;;4.95;1.13;;;14.90;99.90;;;;;;5020081;28;20037;-72
2023/10/05 08:28:49;;;;;;;8.82;1.10;;;14.90;99.90;;;;;;5021108;28;20046;-72
2023/10/05 08:31:18;;;;;;;6.10;1.30;;;15.00;99.90;;;;;;5025255;28;20045;-72
2023/10/05 08:33:43;;;;;;;4.57;1.25;;;15.00;99.90;;;;;;5020445;28;21248;-73
2023/10/05 08:36:12;;;;;;;5.60;1.05;;;15.00;99.90;;;;;;5022170;28;20037;-73
2023/10/05 08:38:38;;;;;;;5.25;1.10;;;15.10;99.90;;;;;;5004734;28;20116;-72
2023/10/05 08:41:07;;;;;;;6.78;1.48;;;15.10;99.90;;;;;;5020464;28;20060;-72
2023/10/05 08:43:39;;;;;;;4.30;1.02;;;15.10;99.90;;;;;;5022572;28;20048;-73
2023/10/05 08:46:10;;;;;;;5.05;1.33;;;15.10;99.90;;;;;;5023965;28;20121;-72
2023/10/05 08:48:37;;;;;;;7.38;1.10;;;15.20;99.90;;;;;;5022839;28;20056;-73
2023/10/05 08:51:14;;;;;;;4.68;1.10;;;15.20;99.90;;;;;;5019451;28;20585;-72
2023/10/05 08:53:59;;;;;;;5.35;0.85;;;15.20;99.90;;;;;;5019505;28;20041;-72
2023/10/05 08:56:25;;;;;;;5.35;1.30;;;15.20;99.90;;;;;;5021691;28;20057;-72
2023/10/05 08:58:52;;;;;;;2.88;1.13;;;15.20;99.90;;;;;;5023611;28;20126;-72
2023/10/05 09:01:31;;;;;;;3.05;0.93;;;15.10;99.90;;;;;;5007214;28;20503;-72
2023/10/05 09:04:11;;;;;;;6.10;1.42;;;15.10;99.90;;;;;;5020942;28;20077;-72
2023/10/05 09:06:48;;;;;;;7.68;1.38;;;15.10;99.90;;;;;;5021959;28;20068;-72
2023/10/05 09:09:14;;;;;;;5.93;1.50;;;15.10;99.90;;;;;;5020237;28;20954;-73
2023/10/05 09:11:41;;;;;;;6.25;1.05;;;15.10;99.90;;;;;;5020729;28;20100;-72
2023/10/05 09:14:12;;;;;;;3.90;1.13;;;15.10;99.90;;;;;;5020798;28;20037;-73
2023/10/05 09:16:41;;;;;;;3.50;1.27;;;15.10;99.90;;;;;;5016792;28;20048;-73
2023/10/05 09:19:33;;;;;;;5.07;1.17;;;15.10;99.90;;;;;;5020214;28;20076;-73
2023/10/05 09:24:28;;;;;;;10.05;1.25;;;15.10;99.90;;;;;;5022757;28;20048;-73
2023/10/05 09:27:00;;;;;;;3.75;1.10;;;15.10;99.90;;;;;;5008471;28;20909;-73
2023/10/05 09:29:33;;;;;;;4.38;1.33;;;15.10;99.90;;;;;;5024216;28;20068;-74
2023/10/05 09:31:59;;;;;;;2.85;1.00;;;15.10;99.90;;;;;;5022749;28;20069;-74
2023/10/05 09:34:34;;;;;;;5.53;1.60;;;15.10;99.90;;;;;;5028972;28;20033;-74
2023/10/05 09:37:05;;;;;;;3.30;1.30;;;15.10;99.90;;;;;;5028913;28;20037;-74
2023/10/05 09:39:43;;;;;;;5.07;1.17;;;15.10;99.90;;;;;;5026569;28;20121;-74
2023/10/05 09:42:25;;;;;;;4.22;1.05;;;15.10;99.90;;;;;;5045218;28;20041;-74
2023/10/05 09:45:01;;;;;;;6.70;1.27;;;15.10;99.90;;;;;;5029579;28;20052;-74
2023/10/05 09:47:32;;;;;;;3.40;1.15;;;15.10;99.90;;;;;;5010492;28;20495;-74
2023/10/05 09:50:13;;;;;;;4.53;1.45;;;15.10;99.90;;;;;;5029138;28;20465;-74
2023/10/05 09:52:46;;;;;;;3.72;0.77;;;15.10;99.90;;;;;;5030957;28;20038;-74
2023/10/05 09:55:21;;;;;;;6.38;1.38;;;15.20;99.90;;;;;;5013716;28;20040;-74
2023/10/05 09:57:51;;;;;;;3.10;0.88;;;15.20;99.90;;;;;;5027913;28;20380;-74
2023/10/05 10:02:59;;;;;;;;;;;15.20;99.90;;;;;;5019153;28;20057;-75
2023/10/05 10:05:41;;;;;;;5.00;1.20;;;15.30;99.90;;;;;;5019047;28;19924;-74
2023/10/05 10:08:14;;;;;;;8.68;1.23;;;15.30;99.90;;;;;;5024701;28;20037;-75
2023/10/05 10:10:49;;;;;;;7.82;1.52;;;15.30;99.90;;;;;;5022641;28;20081;-74
2023/10/05 10:13:15;;;;;;;6.90;1.50;;;15.30;99.90;;;;;;5022005;28;20049;-74
2023/10/05 10:15:46;;;;;;;3.90;1.10;;;15.30;99.90;;;;;;5026310;28;20033;-75
2023/10/05 10:18:14;;;;;;;4.18;1.50;;;15.30;99.90;;;;;;5026065;28;20065;-74
2023/10/05 10:20:46;;;;;;;2.83;0.88;;;15.30;99.90;;;;;;5006859;28;20563;-75
2023/10/05 10:23:22;;;;;;;3.47;1.10;;;15.40;99.90;;;;;;5025605;28;20598;-75
2023/10/05 10:25:50;;;;;;;3.40;0.90;;;15.40;99.90;;;;;;5024686;28;20053;-76
2023/10/05 10:31:22;;;;;;;4.63;1.17;;;15.40;99.90;;;;;;5025162;28;20041;-75
2023/10/05 10:33:51;;;;;;;4.60;1.33;;;15.30;99.90;;;;;;5023806;28;20060;-75
2023/10/05 10:36:46;;;;;;;3.88;1.08;;;15.30;99.90;;;;;;5021232;28;20503;-75
2023/10/05 10:39:27;;;;;;;7.45;1.20;;;15.30;99.90;;;;;;5017245;28;20049;-80
2023/10/05 10:42:04;;;;;;;6.13;1.13;;;15.30;99.90;;;;;;5021592;28;21693;-74
2023/10/05 10:44:41;;;;;;;3.70;1.05;;;15.30;99.90;;;;;;5028965;28;20435;-75
2023/10/05 10:47:09;;;;;;;1.98;0.80;;;15.40;99.90;;;;;;5006387;28;20041;-75
2023/10/05 10:49:39;;;;;;;5.53;1.50;;;15.40;99.90;;;;;;5017490;28;20034;-75
2023/10/05 10:52:11;;;;;;;3.10;1.17;;;15.40;99.90;;;;;;5023098;28;20037;-74
2023/10/05 10:54:48;;;;;;;3.67;1.08;;;15.50;99.90;;;;;;5027142;28;20033;-74
2023/10/05 10:57:20;;;;;;;7.13;0.85;;;15.60;99.90;;;;;;5023693;28;20045;-74
2023/10/05 10:59:46;;;;;;;3.40;1.10;;;15.60;99.90;;;;;;5029165;28;20045;-73
2023/10/05 11:02:23;;;;;;;4.20;1.30;;;15.70;99.90;;;;;;5028106;28;20436;-74
2023/10/05 11:04:49;;;;;;;5.85;1.08;;;15.80;99.90;;;;;;5014032;28;20046;-74
2023/10/05 11:07:15;;;;;;;3.42;1.23;;;15.80;99.90;;;;;;5026311;28;20037;-74
2023/10/05 11:09:48;;;;;;;4.38;1.15;;;15.80;99.90;;;;;;5013602;28;20103;-74
2023/10/05 11:12:21;;;;;;;4.43;1.05;;;15.80;99.90;;;;;;5045473;28;20533;-74
2023/10/05 11:14:47;;;;;;;5.68;1.17;;;15.80;99.90;;;;;;5029181;28;20051;-74
2023/10/05 11:17:31;;;;;;;3.22;1.02;;;15.90;99.90;;;;;;5025095;28;20041;-74
2023/10/05 11:20:16;;;;;;;1.60;0.80;;;15.90;99.90;;;;;;5029454;28;20149;-74
2023/10/05 11:22:42;;;;;;;7.07;1.45;;;15.90;99.90;;;;;;5027862;28;20041;-74
2023/10/05 11:25:23;;;;;;;4.13;0.85;;;16.00;99.90;;;;;;5029115;28;20044;-74
2023/10/05 11:27:56;;;;;;;3.28;1.10;;;16.00;99.90;;;;;;5028080;28;20041;-74
2023/10/05 11:30:41;;;;;;;2.10;0.90;;;16.10;99.90;;;;;;5012767;28;20530;-74
2023/10/05 11:33:15;;;;;;;5.13;1.20;;;16.10;99.90;;;;;;5009236;28;20049;-74
2023/10/05 11:35:49;;;;;;;5.18;1.25;;;16.10;99.90;;;;;;5009047;28;20489;-74
2023/10/05 11:38:26;;;;;;;3.95;1.20;;;16.10;99.90;;;;;;5027594;28;20041;-74
2023/10/05 11:40:56;;;;;;;2.88;1.10;;;16.20;99.90;;;;;;5027702;28;20037;-74
2023/10/05 11:43:26;;;;;;;5.50;1.20;;;16.20;99.90;;;;;;5026769;28;20064;-74
2023/10/05 11:45:59;;;;;;;4.20;1.05;;;16.20;99.90;;;;;;5027281;28;20049;-73
2023/10/05 11:48:41;;;;;;;3.78;1.30;;;16.20;99.90;;;;;;5030076;28;20119;-74
2023/10/05 11:51:11;;;;;;;7.07;1.38;;;16.20;99.90;;;;;;5046394;28;20049;-74
2023/10/05 11:53:37;;;;;;;4.45;1.30;;;16.30;99.90;;;;;;5048836;28;20041;-74
2023/10/05 11:56:06;;;;;;;4.05;0.95;;;16.30;99.90;;;;;;5011623;28;20125;-74
2023/10/05 11:58:37;;;;;;;3.58;1.27;;;16.40;99.90;;;;;;5027762;28;20407;-74
2023/10/05 12:01:03;;;;;;;4.75;1.02;;;16.50;99.90;;;;;;5027871;28;20045;-74
2023/10/05 12:03:32;;;;;;;4.93;1.42;;;16.60;99.90;;;;;;5028887;28;20037;-74
2023/10/05 12:06:00;;;;;;;5.20;1.15;;;16.60;99.90;;;;;;5011263;28;20052;-74
2023/10/05 12:08:34;;;;;;;7.18;1.48;;;16.70;99.90;;;;;;5106309;27;20101;-73
2023/10/05 12:11:00;;;;;;;2.75;0.88;;;16.60;99.90;;;;;;5106695;28;20040;-73
2023/10/05 12:13:27;;;;;;;5.07;1.08;;;16.70;99.90;;;;;;5096474;28;20090;-73
2023/10/05 12:15:53;;;;;;;1.65;0.85;;;16.70;99.90;;;;;;5089853;28;20064;-73
2023/10/05 12:18:19;;;;;;;9.95;1.40;;;16.80;99.90;;;;;;5085544;28;20047;-73
2023/10/05 12:20:47;;;;;;;3.13;1.17;;;16.90;99.90;;;;;;5065550;28;20044;-73
2023/10/05 12:23:16;;;;;;;3.55;1.08;;;16.80;99.90;;;;;;5098622;28;20292;-73
2023/10/05 12:25:43;;;;;;;3.40;1.13;;;16.90;99.90;;;;;;5104368;28;20039;-73
2023/10/05 12:28:08;;;;;;;4.85;1.00;;;17.00;99.90;;;;;;5105441;28;20404;-73
2023/10/05 12:30:35;;;;;;;4.38;1.13;;;17.00;99.90;;;;;;5105288;28;20036;-73
2023/10/05 12:33:03;;;;;;;4.97;0.88;;;17.00;99.90;;;;;;5100554;28;20602;-73
2023/10/05 12:35:29;;;;;;;5.40;1.08;;;17.00;99.90;;;;;;5096385;28;20036;-73
2023/10/05 12:37:58;;;;;;;2.13;0.95;;;17.00;99.90;;;;;;5101726;28;20131;-73
2023/10/05 12:40:33;;;;;;;2.25;0.88;;;17.00;99.90;;;;;;5087604;28;20043;-73
2023/10/05 12:42:59;;;;;;;;;;;17.00;99.90;;;;;;5103357;28;20046;-73
2023/10/05 12:45:25;;;;;;;3.97;0.88;;;17.00;99.90;;;;;;5083672;28;20369;-73
2023/10/05 12:47:55;;;;;;;5.47;1.25;;;17.00;99.90;;;;;;5089959;28;20040;-73
2023/10/05 12:50:22;;;;;;;6.35;0.98;;;17.00;99.90;;;;;;5105716;28;20119;-73
2023/10/05 12:52:51;;;;;;;5.95;1.05;;;16.90;99.90;;;;;;5104744;28;20528;-73
2023/10/05 12:55:18;;;;;;;3.67;0.77;;;16.90;99.90;;;;;;5083599;28;20106;-73
2023/10/05 12:57:50;;;;;;;3.85;1.00;;;16.90;99.90;;;;;;5097793;28;20044;-73
2023/10/05 13:00:19;;;;;;;2.90;0.90;;;16.90;99.90;;;;;;5096799;28;20526;-73
2023/10/05 13:03:00;;;;;;;4.45;0.55;;;16.90;99.90;;;;;;5083638;28;20080;-73
2023/10/05 13:05:31;;;;;;;3.90;0.98;;;16.90;99.90;;;;;;5071101;28;20085;-73
2023/10/05 13:08:01;;;;;;;2.90;0.90;;;16.90;99.90;;;;;;5088362;28;20044;-73
2023/10/05 13:10:30;;;;;;;1.80;0.65;;;16.90;99.90;;;;;;5104091;28;20145;-73
2023/10/05 13:13:00;;;;;;;4.47;0.90;;;16.90;99.90;;;;;;5087781;28;20036;-74
2023/10/05 13:15:32;;;;;;;2.35;0.90;;;16.90;99.90;;;;;;5084006;28;20253;-74
2023/10/05 13:18:15;;;;;;;1.90;0.70;;;17.00;99.90;;;;;;5081115;28;20047;-74
2023/10/05 13:20:42;;;;;;;2.10;0.55;;;17.00;99.90;;;;;;5059327;28;20126;-73
2023/10/05 13:23:10;;;;;;;4.53;0.80;;;17.00;99.90;;;;;;5070834;28;20052;-73
2023/10/05 13:25:36;;;;;;;2.47;0.55;;;17.00;99.90;;;;;;5053104;28;20048;-74
2023/10/05 13:28:04;;;;;;;5.28;1.08;;;17.00;99.90;;;;;;5074825;28;20067;-73
2023/10/05 13:30:40;;;;;;;1.98;0.50;;;17.10;99.90;;;;;;5070068;28;20123;-73
2023/10/05 13:33:13;;;;;;;2.78;0.57;;;17.20;99.90;;;;;;5090697;28;20410;-73
2023/10/05 13:35:42;;;;;;;3.10;0.77;;;17.20;99.90;;;;;;5082400;28;20466;-73
2023/10/05 13:38:16;;;;;;;3.47;0.73;;;17.30;99.90;;;;;;5093906;28;20478;-73